Aeroporto :
LOGIN :

Iscrizione | Disclaimer

   EN    FR    IT 

 










Sommario :    VFR   VFR Marginale   IFR   IFR Intensivo   IFR Molto Intensivo
Visibilità : 
Base nubi : 
>= 8 km
>= 3000ft
5 / 8 km
1000 / 3000 ft
1500m / 5 km
500 / 1000 ft
800 / 1500m
200 / 500 ft
< 800m
< 200 ft
Simboli :   Temporali  Nebbia  Neve Forte  Precipitazioni Forti  Vento > 20 kt
SIGMETs :   Varie  Temporali  Ghiacco  Turbolenza  Onda orograficha  Ceneri Vulcaniche






- Altitudine del aeroporto : 1487 ft
- Codice IATA : MUC


EDDM - München Franz Josef Strauss

ULTIMO METAR :
  • 131520Z AUTO 31004KT 9999 -SHRA FEW038 SCT048 FEW///CB 20/13 Q1014 BECMG 24004KT

METARs OBSOLETI :
  • 131450Z AUTO 28003KT 230V330 9999 FEW037 BKN049 20/12 Q1014 NOSIG
  • 131420Z AUTO VRB02KT 9999 BKN047 20/12 Q1014 NOSIG
  • 131350Z AUTO 33005KT 290V010 9999 SCT047 20/12 Q1015 NOSIG
  • 131320Z AUTO 29006KT 9999 FEW034 SCT049 20/12 Q1015 NOSIG
  • 131250Z AUTO VRB03KT 9999 FEW034 SCT044 21/13 Q1015 NOSIG
  • 131220Z AUTO 31004KT 210V010 9999 FEW031 21/13 Q1015 NOSIG
  • 131150Z AUTO 34005KT 270V030 9999 FEW030 20/13 Q1015 NOSIG
  • 131120Z AUTO 33005KT 300V010 9999 FEW027 20/14 Q1015 NOSIG
  • 131050Z AUTO 33005KT 290V010 9999 FEW026 20/14 Q1015 NOSIG

TAF TAF EDDM
Valido dal 13 a 12 ore il 14 a 18 ore UTC


131100Z 1312/1418 31005KT 9999 SCT030
BECMG 1315/1317 25004KT
PROB30
TEMPO 1318/1321 SHRA SCT030TCU



MetMap, La meteo Aeronautica in un colpo d'occhio ! - Copyright ORBIFLY Dicembre 2007 - Disclaimer

ORBIFLY MET'MAP TEAM :

Programmazione e sviluppo : Alexandra Zaïnal
Concezione : Baudouin d'Aumeries
Supporto tecnico e logistico : Manuel Goepfert
Aiuto : Marc-Olivier Méhu
Aiuto per la traduzione : Arnaldo La Scala




FONTI E CREDITI :

   NOAA